Terminal Aerodrome Forecast
Issued by NWS Pittsburgh, PA

Home | Current Version | Previous Version | Text Only | Print | Product List | Glossary On
Versions: 1 2 3 4 5 6 7 8 9 10 11 12 13 14 15 16 17 18 19 20 21 22 23 24 25 26 27 28 29 30 31 32 33
000
FTUS41 KPBZ 271100 CCA
TAFPIT
TAF COR
KPIT 271139Z 2712/2818 25003KT 4SM BR SCT025 OVC045
     FM271500 28005KT 4SM -SHSN BR OVC020
     FM280000 30010KT P6SM VCSH OVC020=

USA.gov is the U.S. government's official web portal to all federal, state and local government web resources and services.